Time;durP1;ratioP1;P1;durP2;ratioP2;P2;SDS_P1;SDS_P2;PMS_P1;PMS_P2;Temp;Humidity;BMP_temperature;BMP_pressure;BME280_temperature;BME280_humidity;BME280_pressure;Samples;Min_cycle;Max_cycle;Signal;HPM_P1;HPM_P2
2021/05/15 00:02:20;;;;;;;1.38;0.90;;;;;;;10.77;67.38;98201.63;3579613;40;20033;-62
2021/05/15 00:04:47;;;;;;;1.98;0.90;;;;;;;10.78;67.54;98193.50;3579893;40;20045;-61
2021/05/15 00:07:13;;;;;;;3.10;0.90;;;;;;;10.82;67.70;98192.06;3579338;40;20052;-61
2021/05/15 00:09:39;;;;;;;1.67;0.88;;;;;;;10.86;67.36;98195.91;3579790;40;20070;-60
2021/05/15 00:12:06;;;;;;;1.65;0.82;;;;;;;10.94;67.47;98188.75;3579677;40;20068;-61
2021/05/15 00:14:33;;;;;;;1.30;1.00;;;;;;;10.96;67.15;98181.44;3579783;40;20057;-61
2021/05/15 00:16:59;;;;;;;1.92;1.10;;;;;;;10.93;66.93;98187.94;3579314;40;20057;-61
2021/05/15 00:19:25;;;;;;;1.20;0.95;;;;;;;10.84;67.29;98187.38;3579774;40;20053;-61
2021/05/15 00:21:52;;;;;;;1.83;1.00;;;;;;;10.86;67.63;98187.19;3579677;40;20402;-61
2021/05/15 00:24:18;;;;;;;0.85;0.85;;;;;;;10.85;67.73;98183.69;3579629;40;20045;-61
2021/05/15 00:26:44;;;;;;;1.15;1.00;;;;;;;10.82;67.70;98181.50;3579799;40;20096;-59
2021/05/15 00:29:10;;;;;;;1.20;0.88;;;;;;;10.82;67.99;98183.31;3578247;40;20034;-60
2021/05/15 00:31:38;;;;;;;1.10;0.90;;;;;;;10.81;67.97;98177.19;3579667;40;20056;-60
2021/05/15 00:34:04;;;;;;;0.98;0.90;;;;;;;10.80;67.87;98180.06;3579477;40;20092;-60
2021/05/15 00:36:31;;;;;;;1.08;1.00;;;;;;;10.77;68.24;98183.94;3579633;40;20061;-60
2021/05/15 00:38:58;;;;;;;1.17;1.00;;;;;;;10.71;68.29;98179.50;3578879;40;20049;-60
2021/05/15 00:41:24;;;;;;;2.33;1.13;;;;;;;10.68;68.44;98173.81;3579559;40;20068;-60
2021/05/15 00:43:59;;;;;;;1.83;1.45;;;;;;;10.66;68.36;98171.38;3579394;40;20052;-60
2021/05/15 00:46:26;;;;;;;1.23;1.00;;;;;;;10.60;68.48;98178.28;3579783;40;20084;-60
2021/05/15 00:48:52;;;;;;;1.45;1.08;;;;;;;10.62;68.53;98173.63;3580321;40;20068;-60
2021/05/15 00:51:20;;;;;;;1.10;1.00;;;;;;;10.59;68.52;98168.75;3580971;40;20063;-61
2021/05/15 00:53:46;;;;;;;1.08;1.08;;;;;;;10.56;68.83;98168.34;3580809;40;20048;-60
2021/05/15 00:56:14;;;;;;;1.92;1.10;;;;;;;10.54;68.87;98165.91;3580242;40;20056;-59
2021/05/15 00:58:40;;;;;;;1.65;1.02;;;;;;;10.50;68.84;98162.06;3579997;40;20052;-60
2021/05/15 01:01:12;;;;;;;1.80;1.05;;;;;;;10.47;69.25;98169.59;3580600;40;20060;-60
2021/05/15 01:03:38;;;;;;;2.40;1.13;;;;;;;10.46;69.20;98166.16;3580253;40;20052;-61
2021/05/15 01:06:06;;;;;;;1.05;0.95;;;;;;;10.51;69.53;98160.22;3580761;40;20052;-60
2021/05/15 01:08:32;;;;;;;1.35;1.17;;;;;;;10.53;69.40;98159.03;3580014;40;20037;-60
2021/05/15 01:10:58;;;;;;;1.95;1.30;;;;;;;10.55;69.43;98154.31;3579886;40;20127;-61
2021/05/15 01:13:31;;;;;;;2.17;1.55;;;;;;;10.57;69.32;98160.22;3579674;40;20395;-61
2021/05/15 01:15:57;;;;;;;1.60;1.20;;;;;;;10.54;69.35;98159.81;3578851;40;20056;-59
2021/05/15 01:18:25;;;;;;;1.95;1.40;;;;;;;10.59;69.33;98166.09;3577984;40;20041;-60
2021/05/15 01:20:51;;;;;;;1.23;1.10;;;;;;;10.59;69.35;98165.28;3580031;40;20059;-61
2021/05/15 01:23:18;;;;;;;1.30;1.20;;;;;;;10.58;69.28;98161.03;3579337;40;20130;-60
2021/05/15 01:25:46;;;;;;;2.17;1.40;;;;;;;10.56;69.62;98165.69;3579991;40;20061;-59
2021/05/15 01:28:12;;;;;;;2.25;1.48;;;;;;;10.59;69.56;98157.38;3578910;40;20033;-61
2021/05/15 01:30:38;;;;;;;1.30;1.20;;;;;;;10.51;69.47;98157.59;3579121;40;20134;-60
2021/05/15 01:33:08;;;;;;;1.27;1.17;;;;;;;10.52;69.33;98152.09;3579248;40;20333;-60
2021/05/15 01:35:34;;;;;;;1.45;1.30;;;;;;;10.53;69.76;98148.44;3579077;40;20096;-60
2021/05/15 01:38:00;;;;;;;2.78;1.30;;;;;;;10.49;69.35;98146.41;3577754;40;20349;-60
2021/05/15 01:40:27;;;;;;;1.30;1.20;;;;;;;10.36;69.80;98152.53;3579036;40;20060;-60
2021/05/15 01:42:53;;;;;;;1.42;1.30;;;;;;;10.30;70.13;98148.91;3579249;40;20045;-61
2021/05/15 01:45:19;;;;;;;3.53;1.20;;;;;;;10.30;70.17;98159.47;3577391;40;20052;-60
2021/05/15 01:47:45;;;;;;;3.13;1.60;;;;;;;10.32;70.25;98148.69;3579051;40;20145;-60
2021/05/15 01:50:14;;;;;;;1.42;1.33;;;;;;;10.36;70.25;98153.34;3579178;40;20064;-61
2021/05/15 01:52:41;;;;;;;2.42;1.58;;;;;;;10.43;70.52;98152.53;3578171;40;20044;-60
2021/05/15 01:55:12;;;;;;;2.25;1.80;;;;;;;10.44;70.28;98143.59;3580835;40;20056;-61
2021/05/15 01:57:40;;;;;;;1.58;1.42;;;;;;;10.46;70.21;98152.94;3578010;40;20131;-60
2021/05/15 02:00:07;;;;;;;3.08;1.80;;;;;;;10.38;70.31;98142.59;3578915;40;20333;-60
2021/05/15 02:02:40;;;;;;;1.58;1.42;;;;;;;10.36;70.28;98129.56;3578995;40;20045;-60
2021/05/15 02:05:08;;;;;;;3.10;1.52;;;;;;;10.42;70.57;98138.50;3586655;40;20049;-60
2021/05/15 02:07:34;;;;;;;1.90;1.70;;;;;;;10.50;70.25;98132.19;3578519;40;20474;-61
2021/05/15 02:10:00;;;;;;;2.15;1.92;;;;;;;10.51;69.99;98126.69;3579438;40;20157;-61
2021/05/15 02:12:26;;;;;;;2.22;1.73;;;;;;;10.43;70.39;98129.56;3578920;40;20076;-61
2021/05/15 02:14:53;;;;;;;3.00;1.70;;;;;;;10.38;70.26;98130.19;3579414;40;20422;-61
2021/05/15 02:17:19;;;;;;;4.38;1.70;;;;;;;10.38;70.50;98134.66;3579374;40;20056;-61
2021/05/15 02:19:45;;;;;;;2.03;1.67;;;;;;;10.45;70.51;98138.09;3578705;40;20107;-61
2021/05/15 02:22:12;;;;;;;2.13;1.95;;;;;;;10.48;70.28;98144.78;3578726;40;20049;-61
2021/05/15 02:24:38;;;;;;;3.55;1.63;;;;;;;10.46;70.04;98133.63;3579043;40;20052;-61
2021/05/15 02:27:04;;;;;;;3.30;1.60;;;;;;;10.45;70.34;98139.91;3578774;40;20057;-60
2021/05/15 02:29:30;;;;;;;3.15;1.92;;;;;;;10.44;70.32;98128.53;3579775;40;20407;-61
2021/05/15 02:31:57;;;;;;;2.72;2.10;;;;;;;10.46;70.29;98139.72;3579076;40;20060;-61
2021/05/15 02:34:24;;;;;;;2.50;1.92;;;;;;;10.48;69.90;98137.66;3578664;40;20049;-61
2021/05/15 02:36:50;;;;;;;2.97;2.00;;;;;;;10.50;69.69;98143.56;3578062;40;20511;-60
2021/05/15 02:39:19;;;;;;;3.15;2.35;;;;;;;10.48;69.76;98134.22;3578406;40;20534;-60
2021/05/15 02:41:45;;;;;;;2.95;2.30;;;;;;;10.44;69.92;98127.72;3579278;40;20045;-61
2021/05/15 02:44:12;;;;;;;1.85;1.75;;;;;;;10.47;69.93;98132.59;3578485;40;20060;-60
2021/05/15 02:46:38;;;;;;;2.70;2.50;;;;;;;10.46;69.83;98125.69;3578878;40;20433;-61
2021/05/15 02:49:05;;;;;;;2.35;2.15;;;;;;;10.45;69.99;98129.34;3578930;40;20056;-61
2021/05/15 02:51:31;;;;;;;1.90;1.80;;;;;;;10.45;69.94;98126.69;3578963;40;20053;-61
2021/05/15 02:53:57;;;;;;;2.58;2.38;;;;;;;10.38;69.99;98118.81;3579474;40;20392;-61
2021/05/15 02:56:23;;;;;;;3.22;2.10;;;;;;;10.40;69.83;98122.84;3579045;40;20057;-60
2021/05/15 02:58:50;;;;;;;2.63;2.10;;;;;;;10.49;69.62;98127.91;3580223;40;20041;-60
2021/05/15 03:01:18;;;;;;;7.72;2.20;;;;;;;10.49;69.65;98127.91;3580594;40;20065;-62
2021/05/15 03:03:44;;;;;;;3.40;2.10;;;;;;;10.54;69.60;98125.47;3579565;40;20076;-61
2021/05/15 03:06:12;;;;;;;2.35;2.05;;;;;;;10.56;69.62;98121.59;3578134;40;20049;-60
2021/05/15 03:08:45;;;;;;;2.10;1.88;;;;;;;10.62;69.68;98117.31;3579357;40;20037;-60
2021/05/15 03:11:12;;;;;;;2.40;1.83;;;;;;;10.60;69.33;98121.97;3579402;40;20056;-60
2021/05/15 03:13:40;;;;;;;3.50;2.50;;;;;;;10.57;69.52;98125.88;3580124;40;20107;-60
2021/05/15 03:16:06;;;;;;;2.35;2.15;;;;;;;10.56;69.49;98121.59;3580333;40;20330;-60
2021/05/15 03:18:33;;;;;;;3.83;3.15;;;;;;;10.52;69.49;98123.03;3578631;40;20130;-60
2021/05/15 03:21:00;;;;;;;2.88;2.58;;;;;;;10.49;69.45;98119.97;3578394;40;20541;-60
2021/05/15 03:23:28;;;;;;;3.13;2.33;;;;;;;10.50;69.50;98125.06;3578228;40;20334;-60
2021/05/15 03:25:54;;;;;;;2.58;2.30;;;;;;;10.52;69.27;98125.66;3578411;40;20089;-60
2021/05/15 03:28:20;;;;;;;2.25;2.10;;;;;;;10.56;69.03;98129.50;3578184;40;20291;-60
2021/05/15 03:30:46;;;;;;;2.60;2.40;;;;;;;10.53;68.87;98124.66;3577776;40;20049;-60
2021/05/15 03:33:13;;;;;;;2.67;2.20;;;;;;;10.60;68.93;98120.16;3578715;40;20398;-60
2021/05/15 03:35:39;;;;;;;2.40;2.20;;;;;;;10.61;68.87;98121.78;3578693;40;20053;-60
2021/05/15 03:38:05;;;;;;;3.25;2.55;;;;;;;10.52;68.83;98120.38;3578043;40;20045;-60
2021/05/15 03:40:32;;;;;;;3.08;2.40;;;;;;;10.46;68.94;98115.13;3578313;40;20049;-60
2021/05/15 03:42:58;;;;;;;3.13;2.47;;;;;;;10.44;68.95;98119.78;3578247;40;20045;-60
2021/05/15 03:45:25;;;;;;;2.72;2.42;;;;;;;10.49;69.02;98119.97;3577428;40;20132;-60
2021/05/15 03:47:51;;;;;;;2.53;2.28;;;;;;;10.57;68.84;98115.31;3577904;40;20349;-59
2021/05/15 03:50:17;;;;;;;2.67;2.20;;;;;;;10.57;68.74;98117.09;3578382;40;20045;-59
2021/05/15 03:52:44;;;;;;;3.25;2.30;;;;;;;10.53;69.02;98110.63;3578496;40;20111;-60
2021/05/15 03:55:11;;;;;;;2.97;2.45;;;;;;;10.54;68.99;98117.53;3578393;40;20056;-60
2021/05/15 03:57:37;;;;;;;3.88;2.28;;;;;;;10.59;68.94;98118.53;3578020;40;20326;-60
2021/05/15 04:00:06;;;;;;;5.18;2.85;;;;;;;10.54;68.69;98117.53;3577176;40;20079;-60
2021/05/15 04:02:34;;;;;;;5.28;2.60;;;;;;;10.49;68.98;98119.97;3578111;40;20052;-60
2021/05/15 04:05:00;;;;;;;2.63;2.40;;;;;;;10.46;68.77;98120.41;3578184;40;20060;-60
2021/05/15 04:07:28;;;;;;;3.72;2.60;;;;;;;10.47;68.94;98119.38;3578071;40;20102;-59
2021/05/15 04:09:54;;;;;;;4.22;2.97;;;;;;;10.51;68.86;98125.88;3579645;40;20089;-61
2021/05/15 04:12:35;;;;;;;4.20;3.17;;;;;;;10.46;69.01;98121.22;3579400;40;20322;-60
2021/05/15 04:15:05;;;;;;;4.40;2.72;;;;;;;10.46;68.87;98123.88;3579644;40;20409;-61
2021/05/15 04:17:31;;;;;;;4.28;2.65;;;;;;;10.50;69.00;98121.63;3579295;40;20314;-61
2021/05/15 04:19:58;;;;;;;3.78;2.97;;;;;;;10.54;68.83;98120.19;3579339;40;20041;-60
2021/05/15 04:22:24;;;;;;;3.50;3.10;;;;;;;10.49;68.96;98122.63;3580137;40;20053;-60
2021/05/15 04:24:51;;;;;;;5.05;3.20;;;;;;;10.55;68.69;98124.44;3579423;40;20044;-60
2021/05/15 04:27:17;;;;;;;3.70;2.88;;;;;;;10.57;68.80;98123.22;3579270;40;20060;-60
2021/05/15 04:29:44;;;;;;;3.80;3.15;;;;;;;10.56;68.69;98129.50;3579823;40;20037;-60
2021/05/15 04:32:13;;;;;;;3.38;3.08;;;;;;;10.53;68.65;98116.75;3579932;40;20061;-60
2021/05/15 04:34:39;;;;;;;3.70;3.35;;;;;;;10.53;68.47;98124.66;3579159;40;20029;-61
2021/05/15 04:37:08;;;;;;;3.63;3.33;;;;;;;10.68;68.36;98126.22;3579362;40;20048;-60
2021/05/15 04:39:34;;;;;;;3.60;3.30;;;;;;;10.79;68.25;98126.38;3579617;40;20053;-59
2021/05/15 04:42:01;;;;;;;4.50;3.13;;;;;;;10.83;67.98;98124.94;3579862;40;20088;-60
2021/05/15 04:44:28;;;;;;;4.35;3.67;;;;;;;10.75;68.35;98127.00;3580289;40;20055;-60
2021/05/15 04:46:54;;;;;;;4.72;4.00;;;;;;;10.66;68.25;98126.44;3579552;40;20091;-61
2021/05/15 04:49:22;;;;;;;4.40;3.78;;;;;;;10.76;68.22;98124.16;3579410;40;20041;-60
2021/05/15 04:51:48;;;;;;;6.18;3.78;;;;;;;10.84;68.08;98129.19;3579663;40;20029;-60
2021/05/15 04:54:15;;;;;;;4.80;4.13;;;;;;;10.91;67.59;98127.34;3579180;40;20049;-60
2021/05/15 04:56:41;;;;;;;5.97;4.22;;;;;;;10.95;67.56;98130.38;3579265;40;20053;-61
2021/05/15 04:59:07;;;;;;;6.07;4.15;;;;;;;10.94;67.49;98118.19;3579867;40;20049;-61
2021/05/15 05:01:33;;;;;;;5.97;4.22;;;;;;;10.96;67.42;98123.25;3579216;40;20052;-61
2021/05/15 05:04:02;;;;;;;7.05;4.07;;;;;;;11.03;66.95;98124.03;3579426;40;20095;-60
2021/05/15 05:06:30;;;;;;;4.30;3.90;;;;;;;11.04;66.67;98123.00;3579283;40;20049;-61
2021/05/15 05:08:56;;;;;;;5.13;4.03;;;;;;;11.07;66.58;98118.09;3580070;40;20045;-61
2021/05/15 05:11:22;;;;;;;4.72;3.60;;;;;;;11.05;66.60;98120.13;3580037;40;20084;-60
2021/05/15 05:13:51;;;;;;;4.35;3.95;;;;;;;11.05;66.42;98120.13;3579417;40;20100;-60
2021/05/15 05:16:17;;;;;;;5.47;4.25;;;;;;;11.16;66.33;98116.03;3579408;40;20044;-61
2021/05/15 05:18:43;;;;;;;4.80;4.00;;;;;;;11.28;66.00;98116.16;3578486;40;20045;-60
2021/05/15 05:21:09;;;;;;;7.72;3.75;;;;;;;11.35;65.77;98112.44;3580090;40;20044;-61
2021/05/15 05:23:43;;;;;;;4.95;3.78;;;;;;;11.44;65.61;98112.19;3579077;40;20056;-61
2021/05/15 05:26:09;;;;;;;5.07;3.78;;;;;;;11.48;65.41;98110.72;3578464;40;20122;-61
2021/05/15 05:28:36;;;;;;;4.95;3.85;;;;;;;11.39;65.46;98105.69;3577860;40;20041;-60
2021/05/15 05:31:04;;;;;;;5.03;4.00;;;;;;;11.37;65.60;98104.28;3578803;40;20406;-61
2021/05/15 05:33:32;;;;;;;6.88;4.07;;;;;;;11.41;65.89;98108.94;3580362;40;20286;-61
2021/05/15 05:35:58;;;;;;;4.07;3.55;;;;;;;11.45;65.69;98105.84;3579275;40;20086;-61
2021/05/15 05:38:24;;;;;;;6.55;4.13;;;;;;;11.44;65.88;98122.78;3577766;40;20055;-61
2021/05/15 05:41:00;;;;;;;5.13;3.90;;;;;;;11.39;65.65;98103.06;3579559;40;20311;-61
2021/05/15 05:43:26;;;;;;;5.47;3.53;;;;;;;11.32;65.61;98117.34;3578209;40;20076;-61
2021/05/15 05:45:52;;;;;;;4.18;3.78;;;;;;;11.30;65.71;98106.16;3579088;40;20048;-61
2021/05/15 05:48:18;;;;;;;5.47;3.50;;;;;;;11.36;66.12;98110.59;3578957;40;20069;-61
2021/05/15 05:50:45;;;;;;;5.40;3.60;;;;;;;11.40;65.76;98112.59;3578966;40;20037;-61
2021/05/15 05:53:14;;;;;;;5.32;3.25;;;;;;;11.35;65.85;98114.28;3579306;40;20049;-61
2021/05/15 05:55:41;;;;;;;4.70;3.35;;;;;;;11.38;65.96;98111.19;3580302;40;20041;-61
2021/05/15 05:58:08;;;;;;;5.40;3.78;;;;;;;11.36;65.88;98106.13;3579130;40;20142;-61
2021/05/15 06:00:34;;;;;;;4.55;3.58;;;;;;;11.36;65.80;98110.59;3578657;40;20044;-61
2021/05/15 06:03:00;;;;;;;4.00;3.60;;;;;;;11.33;65.96;98111.03;3579120;40;20056;-60
2021/05/15 06:05:26;;;;;;;5.55;3.58;;;;;;;11.33;66.35;98111.03;3578804;40;20167;-61
2021/05/15 06:07:53;;;;;;;4.60;3.88;;;;;;;11.36;66.34;98110.59;3578734;40;20037;-62
2021/05/15 06:10:19;;;;;;;5.10;4.45;;;;;;;11.34;66.04;98110.00;3578945;40;20429;-61
2021/05/15 06:12:50;;;;;;;4.25;3.45;;;;;;;11.36;65.86;98103.47;3579236;40;20395;-61
2021/05/15 06:15:17;;;;;;;4.35;3.95;;;;;;;11.38;65.98;98100.59;3578745;40;20033;-61
2021/05/15 06:17:43;;;;;;;6.53;4.50;;;;;;;11.35;65.58;98104.50;3579823;40;20056;-61
2021/05/15 06:20:11;;;;;;;6.25;4.47;;;;;;;11.31;65.78;98107.78;3580418;40;20073;-60
2021/05/15 06:22:37;;;;;;;6.60;5.00;;;;;;;11.28;65.83;98114.31;3581696;40;20055;-61
2021/05/15 06:25:04;;;;;;;5.07;4.68;;;;;;;11.23;66.26;98110.69;3579810;40;20106;-61
2021/05/15 06:27:30;;;;;;;5.53;4.80;;;;;;;11.15;66.63;98117.06;3579225;40;20310;-61
2021/05/15 06:29:56;;;;;;;4.68;4.28;;;;;;;11.12;66.67;98115.63;3579344;40;20033;-62
2021/05/15 06:32:23;;;;;;;4.93;4.50;;;;;;;11.12;66.91;98114.81;3578981;40;20049;-61
2021/05/15 06:34:50;;;;;;;4.68;4.28;;;;;;;11.19;66.79;98109.50;3579842;40;20103;-62
2021/05/15 06:37:16;;;;;;;7.03;4.80;;;;;;;11.25;67.13;98113.94;3579035;40;20153;-60
2021/05/15 06:39:42;;;;;;;5.60;4.72;;;;;;;11.26;67.07;98116.34;3579237;40;20485;-61
2021/05/15 06:42:09;;;;;;;5.90;4.57;;;;;;;11.29;67.26;98121.22;3577901;40;20049;-60
2021/05/15 06:44:35;;;;;;;4.68;4.28;;;;;;;11.32;67.71;98110.22;3578982;40;20040;-61
2021/05/15 06:47:01;;;;;;;6.25;5.10;;;;;;;11.37;68.02;98110.38;3579341;40;20341;-62
2021/05/15 06:49:28;;;;;;;5.65;5.15;;;;;;;11.44;68.19;98112.19;3578789;40;20131;-61
2021/05/15 06:51:54;;;;;;;5.43;4.82;;;;;;;11.36;68.56;98106.13;3579310;40;20060;-61
2021/05/15 06:54:21;;;;;;;6.90;5.10;;;;;;;11.35;68.81;98109.78;3578706;40;20100;-60
2021/05/15 06:56:47;;;;;;;5.25;4.65;;;;;;;11.33;69.07;98125.06;3578929;40;20036;-60
2021/05/15 06:59:13;;;;;;;6.30;3.95;;;;;;;11.20;69.54;98108.47;3578431;40;20028;-61
2021/05/15 07:01:40;;;;;;;5.80;4.82;;;;;;;11.21;69.85;98105.59;3579166;40;20057;-62
2021/05/15 07:04:06;;;;;;;5.15;4.43;;;;;;;11.22;70.01;98101.94;3578885;40;20085;-61
2021/05/15 07:06:33;;;;;;;5.57;5.07;;;;;;;11.34;70.22;98102.84;3578990;40;20398;-61
2021/05/15 07:09:00;;;;;;;8.38;6.18;;;;;;;11.42;69.91;98107.09;3578183;40;20029;-63
2021/05/15 07:11:26;;;;;;;4.78;4.32;;;;;;;11.46;70.02;98107.47;3578652;40;20025;-61
2021/05/15 07:13:52;;;;;;;6.20;4.32;;;;;;;11.51;70.00;98104.97;3577883;40;20084;-61
2021/05/15 07:16:18;;;;;;;4.80;4.38;;;;;;;11.62;69.58;98097.16;3578532;40;20045;-61
2021/05/15 07:18:44;;;;;;;3.38;2.63;;;;;;;11.63;69.61;98096.16;3578151;40;20045;-62
2021/05/15 07:21:11;;;;;;;4.88;3.50;;;;;;;11.76;69.32;98097.88;3578311;40;20048;-61
2021/05/15 07:23:38;;;;;;;6.57;4.47;;;;;;;12.00;69.46;98085.66;3585758;40;20084;-61
2021/05/15 07:26:05;;;;;;;3.05;2.85;;;;;;;12.20;69.01;98092.56;3578364;40;20130;-61
2021/05/15 07:28:31;;;;;;;5.88;2.88;;;;;;;12.28;67.96;98093.09;3578586;40;20045;-61
2021/05/15 07:30:57;;;;;;;5.25;2.95;;;;;;;12.25;68.46;98085.59;3577189;40;20095;-61
2021/05/15 07:33:23;;;;;;;3.53;3.22;;;;;;;12.14;68.76;98083.69;3578543;40;20052;-62
2021/05/15 07:35:49;;;;;;;5.45;2.95;;;;;;;12.00;68.49;98083.00;3578442;40;20130;-62
2021/05/15 07:38:15;;;;;;;3.53;3.22;;;;;;;11.94;68.46;98083.06;3578407;40;20496;-61
2021/05/15 07:40:42;;;;;;;5.90;3.65;;;;;;;11.97;68.71;98080.00;3578424;40;20090;-61
2021/05/15 07:43:08;;;;;;;4.97;3.50;;;;;;;11.89;68.51;98078.44;3579026;40;20045;-61
2021/05/15 07:45:36;;;;;;;3.28;2.97;;;;;;;11.83;68.80;98077.44;3580374;40;20051;-61
2021/05/15 07:48:02;;;;;;;4.78;3.42;;;;;;;11.87;68.83;98070.69;3580069;40;20428;-62
2021/05/15 07:50:29;;;;;;;4.15;3.08;;;;;;;11.82;68.88;98067.84;3581030;40;20052;-62
2021/05/15 07:52:55;;;;;;;3.33;2.92;;;;;;;11.84;68.37;98073.78;3581215;40;20057;-62
2021/05/15 07:55:22;;;;;;;4.10;3.13;;;;;;;11.84;68.42;98063.19;3580119;40;20045;-61
2021/05/15 07:57:49;;;;;;;3.35;2.90;;;;;;;11.76;68.79;98067.94;3578816;40;20048;-62
2021/05/15 08:00:16;;;;;;;4.63;2.83;;;;;;;11.66;69.31;98079.81;3580113;40;20049;-62
2021/05/15 08:02:43;;;;;;;4.82;3.30;;;;;;;11.60;69.45;98083.34;3578947;40;20056;-62
2021/05/15 08:05:10;;;;;;;3.63;2.78;;;;;;;11.51;69.65;98089.94;3579741;40;20049;-62
2021/05/15 08:07:36;;;;;;;4.22;3.13;;;;;;;11.39;70.30;98092.47;3579614;40;20052;-62
2021/05/15 08:10:03;;;;;;;5.38;4.43;;;;;;;11.30;70.83;98088.44;3580086;40;20114;-62
2021/05/15 08:12:29;;;;;;;4.05;2.50;;;;;;;11.25;70.33;98082.97;3580005;40;20411;-62
2021/05/15 08:14:56;;;;;;;4.82;2.05;;;;;;;11.20;70.02;98074.88;3578525;40;20426;-61
2021/05/15 08:17:22;;;;;;;2.47;1.80;;;;;;;11.18;69.65;98074.28;3578832;40;20052;-62
2021/05/15 08:19:48;;;;;;;3.30;1.83;;;;;;;11.18;69.82;98073.47;3579490;40;20056;-61
2021/05/15 08:22:14;;;;;;;2.97;2.03;;;;;;;11.20;69.86;98082.03;3580239;40;20052;-61
2021/05/15 08:24:41;;;;;;;2.60;1.73;;;;;;;11.18;69.76;98068.97;3580652;40;20130;-61
2021/05/15 08:27:07;;;;;;;1.55;1.40;;;;;;;11.25;69.85;98075.03;3580448;40;20068;-60
2021/05/15 08:29:33;;;;;;;4.20;3.13;;;;;;;11.30;69.79;98072.56;3581132;40;20044;-61
2021/05/15 08:32:00;;;;;;;1.48;1.27;;;;;;;11.31;69.38;98065.47;3579960;40;20059;-61
2021/05/15 08:34:27;;;;;;;3.03;1.10;;;;;;;11.40;69.33;98072.09;3579686;40;20051;-61
2021/05/15 08:36:54;;;;;;;2.42;1.45;;;;;;;11.46;69.19;98067.78;3579900;40;20060;-61
2021/05/15 08:39:20;;;;;;;2.10;1.20;;;;;;;11.51;69.08;98073.22;3579291;40;20053;-61
2021/05/15 08:41:46;;;;;;;2.67;1.50;;;;;;;11.62;68.62;98075.16;3579095;40;20061;-61
2021/05/15 08:44:14;;;;;;;4.47;2.83;;;;;;;11.70;68.45;98063.50;3579660;40;20150;-63
2021/05/15 08:46:42;;;;;;;2.88;2.22;;;;;;;11.77;68.90;98067.72;3579360;40;20057;-63
2021/05/15 08:49:10;;;;;;;3.63;2.58;;;;;;;11.84;68.91;98063.19;3578878;40;20044;-62
2021/05/15 08:51:36;;;;;;;1.40;1.30;;;;;;;11.92;69.18;98055.97;3579483;40;20404;-62
2021/05/15 08:54:02;;;;;;;2.63;1.60;;;;;;;11.99;69.10;98062.84;3579144;40;20056;-63
2021/05/15 08:56:29;;;;;;;2.10;1.35;;;;;;;12.04;68.88;98057.72;3579483;40;20060;-62
2021/05/15 08:58:56;;;;;;;1.88;1.20;;;;;;;12.07;67.81;98059.09;3578231;40;20065;-63
2021/05/15 09:01:23;;;;;;;1.63;1.30;;;;;;;12.15;68.01;98061.44;3579517;40;20049;-62
2021/05/15 09:03:50;;;;;;;1.67;1.38;;;;;;;12.42;68.44;98058.50;3579707;40;20048;-62
2021/05/15 09:06:20;;;;;;;2.15;1.63;;;;;;;12.60;67.88;98048.66;3578342;40;20027;-62
2021/05/15 09:08:48;;;;;;;1.75;1.35;;;;;;;12.62;67.51;98051.91;3579096;40;20378;-62
2021/05/15 09:11:16;;;;;;;2.30;1.80;;;;;;;12.69;67.70;98053.66;3579200;40;20049;-62
2021/05/15 09:13:51;;;;;;;1.90;1.30;;;;;;;12.57;67.93;98065.06;3579325;40;20398;-63
2021/05/15 09:16:19;;;;;;;1.30;1.20;;;;;;;12.26;67.89;98058.06;3578300;40;20056;-62
2021/05/15 09:18:47;;;;;;;1.17;1.10;;;;;;;12.13;68.58;98063.53;3579159;40;20057;-63
2021/05/15 09:21:16;;;;;;;1.30;1.20;;;;;;;12.11;68.89;98055.78;3578495;40;20291;-62
2021/05/15 09:23:46;;;;;;;2.13;1.50;;;;;;;12.09;68.59;98063.16;3579234;40;20515;-62
2021/05/15 09:26:15;;;;;;;2.30;1.75;;;;;;;12.17;68.87;98050.66;3579308;40;20080;-62
2021/05/15 09:28:44;;;;;;;1.95;1.70;;;;;;;12.30;69.31;98039.88;3579074;40;20065;-63
2021/05/15 09:31:20;;;;;;;3.03;2.03;;;;;;;12.60;69.05;98032.75;3579216;40;20430;-62
2021/05/15 09:33:49;;;;;;;2.50;1.48;;;;;;;13.05;68.49;98031.53;3579253;40;20021;-62
2021/05/15 09:36:20;;;;;;;4.30;3.88;;;;;;;13.41;67.36;98029.78;3579083;40;20075;-62
2021/05/15 09:39:10;;;;;;;2.45;2.25;;;;;;;13.69;67.13;98029.13;3577805;40;20041;-63
2021/05/15 09:41:39;;;;;;;3.03;1.75;;;;;;;14.05;66.69;98022.72;3578852;40;20043;-63
2021/05/15 09:44:08;;;;;;;2.50;1.80;;;;;;;14.42;66.28;98023.22;3578861;40;20057;-62
2021/05/15 09:46:37;;;;;;;2.50;1.80;;;;;;;14.67;64.32;98014.94;3579229;40;20053;-63
2021/05/15 09:49:06;;;;;;;2.15;1.90;;;;;;;14.76;64.19;98010.03;3578595;40;20303;-62
2021/05/15 09:51:34;;;;;;;2.42;1.90;;;;;;;14.70;65.06;98006.50;3578897;40;20044;-62
2021/05/15 09:54:16;;;;;;;5.72;1.98;;;;;;;14.90;65.00;97997.25;3578865;40;20048;-62
2021/05/15 09:56:43;;;;;;;2.97;1.70;;;;;;;15.05;64.14;97989.53;3579141;40;20033;-62
2021/05/15 09:59:12;;;;;;;2.60;1.98;;;;;;;15.28;63.79;97989.38;3578677;40;20029;-62
2021/05/15 10:01:41;;;;;;;3.30;2.28;;;;;;;15.45;63.04;97992.03;3578664;40;20411;-63
2021/05/15 10:04:09;;;;;;;6.15;1.92;;;;;;;15.35;61.71;97984.69;3579048;40;20048;-62
2021/05/15 10:06:36;;;;;;;3.55;2.13;;;;;;;15.24;62.26;97988.25;3578171;40;20032;-63
2021/05/15 10:09:08;;;;;;;3.35;1.85;;;;;;;14.97;61.51;97979.28;3579008;40;20053;-64
2021/05/15 10:11:36;;;;;;;2.97;1.73;;;;;;;14.96;62.18;97980.31;3579112;40;20048;-63
2021/05/15 10:14:04;;;;;;;3.72;2.10;;;;;;;15.14;61.88;97976.63;3578829;40;20053;-63
2021/05/15 10:16:32;;;;;;;3.30;1.70;;;;;;;15.16;60.95;97980.66;3578973;40;20322;-61
2021/05/15 10:18:59;;;;;;;3.88;1.90;;;;;;;15.10;60.00;97977.13;3578618;40;20099;-61
2021/05/15 10:21:27;;;;;;;5.43;1.80;;;;;;;15.20;60.06;97973.00;3578755;40;20048;-61
2021/05/15 10:23:55;;;;;;;3.40;2.20;;;;;;;15.48;60.13;97972.09;3579338;40;20326;-62
2021/05/15 10:26:24;;;;;;;5.65;2.15;;;;;;;15.55;59.32;97964.72;3579733;40;20045;-62
2021/05/15 10:29:00;;;;;;;3.40;2.00;;;;;;;15.63;58.77;97960.84;3579301;40;20095;-62
2021/05/15 10:31:41;;;;;;;6.57;2.13;;;;;;;15.69;58.93;97954.56;3581843;40;20029;-62
2021/05/15 10:34:10;;;;;;;4.22;1.70;;;;;;;15.73;58.09;97958.34;3581137;40;20064;-63
2021/05/15 10:36:46;;;;;;;5.32;2.13;;;;;;;15.90;58.27;97948.44;3581698;40;20049;-63
2021/05/15 10:39:25;;;;;;;5.00;2.00;;;;;;;15.79;57.05;97944.03;3581497;40;20095;-62
2021/05/15 10:41:52;;;;;;;2.63;1.88;;;;;;;15.66;57.10;97942.53;3581460;40;20469;-63
2021/05/15 10:44:23;;;;;;;5.00;1.80;;;;;;;15.49;56.94;97941.75;3580460;40;20040;-62
2021/05/15 10:46:52;;;;;;;4.68;1.73;;;;;;;15.24;56.68;97935.00;3579875;40;20049;-62
2021/05/15 10:49:22;;;;;;;3.40;1.50;;;;;;;15.17;57.19;97933.53;3579956;40;20060;-62
2021/05/15 10:51:51;;;;;;;4.78;1.80;;;;;;;14.99;57.97;97934.59;3580435;40;20055;-62
2021/05/15 10:54:31;;;;;;;4.50;1.83;;;;;;;14.97;58.33;97926.03;3580789;40;20048;-62
2021/05/15 10:57:04;;;;;;;2.78;1.90;;;;;;;14.99;59.24;97919.44;3579660;40;20052;-62
2021/05/15 10:59:35;;;;;;;4.72;2.00;;;;;;;14.84;58.96;97913.88;3579091;40;20476;-62
2021/05/15 11:02:07;;;;;;;4.78;1.50;;;;;;;14.75;57.36;97910.81;3578623;40;20044;-62
2021/05/15 11:04:49;;;;;;;5.90;2.08;;;;;;;14.68;58.17;97917.31;3580129;40;20048;-62
2021/05/15 11:07:19;;;;;;;5.18;1.77;;;;;;;14.71;58.07;97911.53;3577778;40;20324;-62
2021/05/15 11:10:03;;;;;;;4.07;1.58;;;;;;;14.71;57.63;97909.69;3578785;40;20053;-61
2021/05/15 11:12:39;;;;;;;3.63;1.67;;;;;;;14.73;57.92;97910.22;3578601;40;20095;-62
2021/05/15 11:15:11;;;;;;;2.42;1.55;;;;;;;14.76;57.56;97911.59;3578012;40;20317;-62
2021/05/15 11:17:38;;;;;;;4.35;1.70;;;;;;;14.78;56.39;97907.66;3579206;40;20146;-62
2021/05/15 11:20:12;;;;;;;3.15;1.20;;;;;;;14.64;55.80;97914.34;3578962;40;20052;-63
2021/05/15 11:22:40;;;;;;;;;;;;;;;14.60;55.43;97903.38;3580675;40;20049;-65
2021/05/15 11:25:19;;;;;;;2.67;1.20;;;;;;;14.48;52.85;97907.91;3580065;40;19933;-61
2021/05/15 11:27:48;;;;;;;4.72;3.20;;;;;;;14.34;52.09;97915.38;3579629;40;20138;-62
2021/05/15 11:30:19;;;;;;;2.78;1.20;;;;;;;14.34;51.41;97906.59;3580151;40;20056;-62
2021/05/15 11:33:00;;;;;;;4.35;2.00;;;;;;;14.42;51.93;97906.22;3579999;40;20157;-63
2021/05/15 11:35:29;;;;;;;2.97;1.10;;;;;;;14.40;50.87;97902.19;3580148;40;20069;-62
2021/05/15 11:38:02;;;;;;;2.50;1.13;;;;;;;14.46;51.83;97901.22;3579187;40;20041;-62